Anne Sibum — C4YC2 — position and weather

sailwx.info

Track history (hours):
 
Tides and Currents Weather Stations Pressure Air Temp Water Temp Dewpoint Dewpoint Depression Visibility Wind Speed Wind Dir Waves Ship Positions

Anne Sibum

Last reported at 2015-Mar-02 10:30 UTC. Time now 2015-Mar-02 11:13 UTC.
Position N 51°57' E 003°47'.

Length 151 m; draft 5.7 m.

Type: Cargo ship. MMSI: 209322000.

Date/timePositionNaut miles runAvg speedWind from/ knotsBaromVisibWave heightAir tempDewpointWater temp
2015-Mar-02 10:30N 51°57' E 003°47'0 0.0
2015-Mar-02 09:14N 51°57' E 003°47'0 0.0
2015-Mar-02 08:14N 51°57' E 003°47'0 0.0
2015-Mar-02 07:26N 51°57' E 003°47'0 0.0
2015-Mar-02 06:28N 51°57' E 003°47'0 0.0
2015-Mar-02 05:31N 51°57' E 003°47'0 0.0
2015-Mar-02 04:30N 51°57' E 003°47'0 0.0
2015-Mar-02 03:30N 51°57' E 003°47'0 0.0
2015-Mar-02 02:18N 51°57' E 003°47'0 0.0
2015-Mar-02 01:32N 51°57' E 003°47'0 0.0
2015-Mar-02 00:23N 51°57' E 003°47'0 0.0
2015-Mar-01 23:28N 51°57' E 003°47'0 0.0
2015-Mar-01 22:31N 51°57' E 003°47'0 0.0
2015-Mar-01 21:33N 51°57' E 003°47'0 0.0
2015-Mar-01 20:33N 51°57' E 003°47'0 0.0
2015-Mar-01 19:33N 51°57' E 003°47'4 4.1
2015-Mar-01 18:33N 52°00' E 003°52'1212.1
2015-Mar-01 17:33N 51°57' E 004°11'1010.2
2015-Mar-01 16:33N 51°54' E 004°27'0 0.0
2015-Mar-01 15:32N 51°54' E 004°27'0 0.0
2015-Mar-01 14:32N 51°54' E 004°27'0 0.0
2015-Mar-01 13:31N 51°54' E 004°27'0 0.0
2015-Mar-01 12:31N 51°54' E 004°27'0 0.0
2015-Mar-01 11:30N 51°54' E 004°27'0 0.0
2015-Mar-01 10:33N 51°54' E 004°27'0 0.0
2015-Mar-01 09:33N 51°54' E 004°27'0 0.0
2015-Mar-01 08:32N 51°54' E 004°27'0 0.0
2015-Mar-01 07:32N 51°54' E 004°27'0 0.0
2015-Mar-01 06:31N 51°54' E 004°27'0 0.0
2015-Mar-01 05:31N 51°54' E 004°27'0 0.0
2015-Mar-01 04:34N 51°54' E 004°27'0 0.0
2015-Mar-01 03:33N 51°54' E 004°27'0 0.0
2015-Mar-01 02:33N 51°54' E 004°27'0 0.0
2015-Mar-01 01:32N 51°54' E 004°27'0 0.0
2015-Mar-01 00:32N 51°54' E 004°27'0 0.0
2015-Feb-28 23:31N 51°54' E 004°27'0 0.0
2015-Feb-28 22:31N 51°54' E 004°27'0 0.0
2015-Feb-28 21:33N 51°54' E 004°27'0 0.0
2015-Feb-28 20:33N 51°54' E 004°27'0 0.0
2015-Feb-28 19:30N 51°54' E 004°27'0 0.0
2015-Feb-28 18:33N 51°54' E 004°27'0 0.0
2015-Feb-28 17:29N 51°54' E 004°27'0 0.0
2015-Feb-28 16:31N 51°54' E 004°27'0 0.0
2015-Feb-28 15:31N 51°54' E 004°27'0 0.0
2015-Feb-28 14:33N 51°54' E 004°27'0 0.0
2015-Feb-28 13:33N 51°54' E 004°27'0 0.0
2015-Feb-28 12:33N 51°54' E 004°27'0 0.0
2015-Feb-28 11:29N 51°54' E 004°27'0 0.0
2015-Feb-28 10:32N 51°54' E 004°27'0 0.0
2015-Feb-28 09:31N 51°54' E 004°27'0 0.0
2015-Feb-28 08:31N 51°54' E 004°27'5 5.6
2015-Feb-28 07:33N 51°54' E 004°18'9 9.0
2015-Feb-28 06:33N 51°58' E 004°05'0 0.3
2015-Feb-28 05:32N 51°58' E 004°04'0 0.0
2015-Feb-28 04:31N 51°58' E 004°04'0 0.0
2015-Feb-28 03:31N 51°58' E 004°04'0 0.0
2015-Feb-28 02:31N 51°58' E 004°04'0 0.0
2015-Feb-28 01:33N 51°58' E 004°04'0 0.0
2015-Feb-28 00:33N 51°58' E 004°04'0 0.0
2015-Feb-27 23:29N 51°58' E 004°04'0 0.0
2015-Feb-27 22:29N 51°58' E 004°04'0 0.0
2015-Feb-27 21:31N 51°58' E 004°04'0 0.0
2015-Feb-27 20:31N 51°58' E 004°04'0 0.0
2015-Feb-27 19:31N 51°58' E 004°04'0 0.0
2015-Feb-27 18:33N 51°58' E 004°04'0 0.0
2015-Feb-27 17:33N 51°58' E 004°04'0 0.0
2015-Feb-27 16:32N 51°58' E 004°04'0 0.0
2015-Feb-27 15:32N 51°58' E 004°04'1 0.9
2015-Feb-27 14:33N 51°58' E 004°03'1 0.9
2015-Feb-27 13:31N 51°59' E 004°02'0 0.0
2015-Feb-27 12:31N 51°59' E 004°02'0 0.0
2015-Feb-27 11:27N 51°59' E 004°02'0 0.0
2015-Feb-27 10:33N 51°59' E 004°02'2 1.8
2015-Feb-27 09:33N 51°57' E 004°03'0 0.0
2015-Feb-27 08:29N 51°57' E 004°03'0 0.0
2015-Feb-27 07:32N 51°57' E 004°03'0 0.0
2015-Feb-27 06:29N 51°57' E 004°03'0 0.0
2015-Feb-27 05:28N 51°57' E 004°03'0 0.0
2015-Feb-27 04:31N 51°57' E 004°03'0 0.0
2015-Feb-27 03:30N 51°57' E 004°03'0 0.0
2015-Feb-27 02:33N 51°57' E 004°03'0 0.0
2015-Feb-27 01:29N 51°57' E 004°03'0 0.0
2015-Feb-27 00:32N 51°57' E 004°03'0 0.0
2015-Feb-26 23:32N 51°57' E 004°03'0 0.0
2015-Feb-26 22:25N 51°57' E 004°03'0 0.0
2015-Feb-26 21:25N 51°57' E 004°03'3 3.4
2015-Feb-26 20:34N 51°59' E 004°06'1010.4
2015-Feb-26 19:34N 51°54' E 004°20'3 3.1
2015-Feb-26 18:33N 51°53' E 004°25'0 0.0
2015-Feb-26 17:33N 51°53' E 004°25'0 0.0
2015-Feb-26 16:29N 51°53' E 004°25'0 0.0
2015-Feb-26 15:32N 51°53' E 004°25'0 0.0
2015-Feb-26 14:28N 51°53' E 004°25'0 0.0
2015-Feb-26 13:33N 51°53' E 004°25'0 0.0
2015-Feb-26 12:30N 51°53' E 004°25'0 0.0
2015-Feb-26 11:33N 51°53' E 004°25'0 0.0
2015-Feb-26 10:32N 51°53' E 004°25'0 0.0
2015-Feb-26 09:32N 51°53' E 004°25'0 0.0
2015-Feb-26 08:34N 51°53' E 004°25'5 4.7
2015-Feb-26 07:34N 51°54' E 004°18'1212.3
2015-Feb-26 06:33N 51°60' E 004°00'1312.6
2015-Feb-26 05:33N 51°58' E 003°40'1211.3
2015-Feb-26 04:30N 51°54' E 003°22'1111.3
2015-Feb-26 03:33N 51°51' E 003°05'2511.3
2015-Feb-26 01:21N 51°40' E 002°29'911.6
2015-Feb-26 00:33N 51°33' E 002°20'1111.2
2015-Feb-25 23:33N 51°24' E 002°09'1111.0
2015-Feb-25 22:34N 51°14' E 002°04'1111.0
2015-Feb-25 21:33N 51°08' E 001°48'1010.3
2015-Feb-25 20:33N 51°01' E 001°37'  
2015-Feb-22 04:03N 39°02' W 009°48'27 9.6
2015-Feb-22 01:12N 38°37' W 009°33'1013.4
2015-Feb-22 00:28N 38°39' W 009°21'1010.5
2015-Feb-21 23:29N 38°42' W 009°08'2 2.2
2015-Feb-21 22:29N 38°44' W 009°06'0 0.0
2015-Feb-21 21:33N 38°44' W 009°06'0 0.0
2015-Feb-21 20:29N 38°44' W 009°06'0 0.0
2015-Feb-21 19:33N 38°44' W 009°06'0 0.0
2015-Feb-21 18:30N 38°44' W 009°06'0 0.0
2015-Feb-21 17:31N 38°44' W 009°06'0 0.0
2015-Feb-21 16:32N 38°44' W 009°06'0 0.0
2015-Feb-21 15:33N 38°44' W 009°06'0 0.0
2015-Feb-21 14:33N 38°44' W 009°06'0 0.0
2015-Feb-21 11:20N 38°44' W 009°06'0 0.0
2015-Feb-21 08:31N 38°44' W 009°06'0 0.0
2015-Feb-21 07:33N 38°44' W 009°06'0 0.0
2015-Feb-21 06:33N 38°44' W 009°06'0 0.0
2015-Feb-21 04:05N 38°44' W 009°06'0 0.0
2015-Feb-21 03:28N 38°44' W 009°06'0 0.0
2015-Feb-21 02:19N 38°44' W 009°06'0 0.0
2015-Feb-21 01:28N 38°44' W 009°06'0 0.0
2015-Feb-21 00:30N 38°44' W 009°06'0 0.0
2015-Feb-20 23:33N 38°44' W 009°06'0 0.0
2015-Feb-20 22:32N 38°44' W 009°06'0 0.0
2015-Feb-20 21:29N 38°44' W 009°06'0 0.0
2015-Feb-20 20:25N 38°44' W 009°06'0 0.0
2015-Feb-20 19:31N 38°44' W 009°06'0 0.0
2015-Feb-20 18:24N 38°44' W 009°06'0 0.0
2015-Feb-20 17:27N 38°44' W 009°06'0 0.0
2015-Feb-20 16:33N 38°44' W 009°06'1 0.8
2015-Feb-20 15:32N 38°43' W 009°07'1010.2
2015-Feb-20 14:33N 38°40' W 009°19'1514.6
2015-Feb-20 13:31N 38°36' W 009°38'1515.5
2015-Feb-20 12:33N 38°35' W 009°57'1313.0
2015-Feb-20 11:32N 38°47' W 010°05'  
Track history (hours):
 
Tides and Currents Weather Stations Pressure Air Temp Water Temp Dewpoint Dewpoint Depression Visibility Wind Speed Wind Dir Waves Ship Positions

Anne Sibum

Last reported at 2015-Mar-02 10:30 UTC. Time now 2015-Mar-02 11:13 UTC.
Position N 51°57' E 003°47'.

Length 151 m; draft 5.7 m.

Type: Cargo ship. MMSI: 209322000.

Date/timePositionNaut miles runAvg speedWind from/ knotsBaromVisibWave heightAir tempDewpointWater temp
2015-Mar-02 10:30N 51°57' E 003°47'0 0.0
2015-Mar-02 09:14N 51°57' E 003°47'0 0.0
2015-Mar-02 08:14N 51°57' E 003°47'0 0.0
2015-Mar-02 07:26N 51°57' E 003°47'0 0.0
2015-Mar-02 06:28N 51°57' E 003°47'0 0.0
2015-Mar-02 05:31N 51°57' E 003°47'0 0.0
2015-Mar-02 04:30N 51°57' E 003°47'0 0.0
2015-Mar-02 03:30N 51°57' E 003°47'0 0.0
2015-Mar-02 02:18N 51°57' E 003°47'0 0.0
2015-Mar-02 01:32N 51°57' E 003°47'0 0.0
2015-Mar-02 00:23N 51°57' E 003°47'0 0.0
2015-Mar-01 23:28N 51°57' E 003°47'0 0.0
2015-Mar-01 22:31N 51°57' E 003°47'0 0.0
2015-Mar-01 21:33N 51°57' E 003°47'0 0.0
2015-Mar-01 20:33N 51°57' E 003°47'0 0.0
2015-Mar-01 19:33N 51°57' E 003°47'4 4.1
2015-Mar-01 18:33N 52°00' E 003°52'1212.1
2015-Mar-01 17:33N 51°57' E 004°11'1010.2
2015-Mar-01 16:33N 51°54' E 004°27'0 0.0
2015-Mar-01 15:32N 51°54' E 004°27'0 0.0
2015-Mar-01 14:32N 51°54' E 004°27'0 0.0
2015-Mar-01 13:31N 51°54' E 004°27'0 0.0
2015-Mar-01 12:31N 51°54' E 004°27'0 0.0
2015-Mar-01 11:30N 51°54' E 004°27'0 0.0
2015-Mar-01 10:33N 51°54' E 004°27'0 0.0
2015-Mar-01 09:33N 51°54' E 004°27'0 0.0
2015-Mar-01 08:32N 51°54' E 004°27'0 0.0
2015-Mar-01 07:32N 51°54' E 004°27'0 0.0
2015-Mar-01 06:31N 51°54' E 004°27'0 0.0
2015-Mar-01 05:31N 51°54' E 004°27'0 0.0
2015-Mar-01 04:34N 51°54' E 004°27'0 0.0
2015-Mar-01 03:33N 51°54' E 004°27'0 0.0
2015-Mar-01 02:33N 51°54' E 004°27'0 0.0
2015-Mar-01 01:32N 51°54' E 004°27'0 0.0
2015-Mar-01 00:32N 51°54' E 004°27'0 0.0
2015-Feb-28 23:31N 51°54' E 004°27'0 0.0
2015-Feb-28 22:31N 51°54' E 004°27'0 0.0
2015-Feb-28 21:33N 51°54' E 004°27'0 0.0
2015-Feb-28 20:33N 51°54' E 004°27'0 0.0
2015-Feb-28 19:30N 51°54' E 004°27'0 0.0
2015-Feb-28 18:33N 51°54' E 004°27'0 0.0
2015-Feb-28 17:29N 51°54' E 004°27'0 0.0
2015-Feb-28 16:31N 51°54' E 004°27'0 0.0
2015-Feb-28 15:31N 51°54' E 004°27'0 0.0
2015-Feb-28 14:33N 51°54' E 004°27'0 0.0
2015-Feb-28 13:33N 51°54' E 004°27'0 0.0
2015-Feb-28 12:33N 51°54' E 004°27'0 0.0
2015-Feb-28 11:29N 51°54' E 004°27'0 0.0
2015-Feb-28 10:32N 51°54' E 004°27'0 0.0
2015-Feb-28 09:31N 51°54' E 004°27'0 0.0
2015-Feb-28 08:31N 51°54' E 004°27'5 5.6
2015-Feb-28 07:33N 51°54' E 004°18'9 9.0
2015-Feb-28 06:33N 51°58' E 004°05'0 0.3
2015-Feb-28 05:32N 51°58' E 004°04'0 0.0
2015-Feb-28 04:31N 51°58' E 004°04'0 0.0
2015-Feb-28 03:31N 51°58' E 004°04'0 0.0
2015-Feb-28 02:31N 51°58' E 004°04'0 0.0
2015-Feb-28 01:33N 51°58' E 004°04'0 0.0
2015-Feb-28 00:33N 51°58' E 004°04'0 0.0
2015-Feb-27 23:29N 51°58' E 004°04'0 0.0
2015-Feb-27 22:29N 51°58' E 004°04'0 0.0
2015-Feb-27 21:31N 51°58' E 004°04'0 0.0
2015-Feb-27 20:31N 51°58' E 004°04'0 0.0
2015-Feb-27 19:31N 51°58' E 004°04'0 0.0
2015-Feb-27 18:33N 51°58' E 004°04'0 0.0
2015-Feb-27 17:33N 51°58' E 004°04'0 0.0
2015-Feb-27 16:32N 51°58' E 004°04'0 0.0
2015-Feb-27 15:32N 51°58' E 004°04'1 0.9
2015-Feb-27 14:33N 51°58' E 004°03'1 0.9
2015-Feb-27 13:31N 51°59' E 004°02'0 0.0
2015-Feb-27 12:31N 51°59' E 004°02'0 0.0
2015-Feb-27 11:27N 51°59' E 004°02'0 0.0
2015-Feb-27 10:33N 51°59' E 004°02'2 1.8
2015-Feb-27 09:33N 51°57' E 004°03'0 0.0
2015-Feb-27 08:29N 51°57' E 004°03'0 0.0
2015-Feb-27 07:32N 51°57' E 004°03'0 0.0
2015-Feb-27 06:29N 51°57' E 004°03'0 0.0
2015-Feb-27 05:28N 51°57' E 004°03'0 0.0
2015-Feb-27 04:31N 51°57' E 004°03'0 0.0
2015-Feb-27 03:30N 51°57' E 004°03'0 0.0
2015-Feb-27 02:33N 51°57' E 004°03'0 0.0
2015-Feb-27 01:29N 51°57' E 004°03'0 0.0
2015-Feb-27 00:32N 51°57' E 004°03'0 0.0
2015-Feb-26 23:32N 51°57' E 004°03'0 0.0
2015-Feb-26 22:25N 51°57' E 004°03'0 0.0
2015-Feb-26 21:25N 51°57' E 004°03'3 3.4
2015-Feb-26 20:34N 51°59' E 004°06'1010.4
2015-Feb-26 19:34N 51°54' E 004°20'3 3.1
2015-Feb-26 18:33N 51°53' E 004°25'0 0.0
2015-Feb-26 17:33N 51°53' E 004°25'0 0.0
2015-Feb-26 16:29N 51°53' E 004°25'0 0.0
2015-Feb-26 15:32N 51°53' E 004°25'0 0.0
2015-Feb-26 14:28N 51°53' E 004°25'0 0.0
2015-Feb-26 13:33N 51°53' E 004°25'0 0.0
2015-Feb-26 12:30N 51°53' E 004°25'0 0.0
2015-Feb-26 11:33N 51°53' E 004°25'0 0.0
2015-Feb-26 10:32N 51°53' E 004°25'0 0.0
2015-Feb-26 09:32N 51°53' E 004°25'0 0.0
2015-Feb-26 08:34N 51°53' E 004°25'5 4.7
2015-Feb-26 07:34N 51°54' E 004°18'1212.3
2015-Feb-26 06:33N 51°60' E 004°00'1312.6
2015-Feb-26 05:33N 51°58' E 003°40'1211.3
2015-Feb-26 04:30N 51°54' E 003°22'1111.3
2015-Feb-26 03:33N 51°51' E 003°05'2511.3
2015-Feb-26 01:21N 51°40' E 002°29'911.6
2015-Feb-26 00:33N 51°33' E 002°20'1111.2
2015-Feb-25 23:33N 51°24' E 002°09'1111.0
2015-Feb-25 22:34N 51°14' E 002°04'1111.0
2015-Feb-25 21:33N 51°08' E 001°48'1010.3
2015-Feb-25 20:33N 51°01' E 001°37'  
2015-Feb-22 04:03N 39°02' W 009°48'27 9.6
2015-Feb-22 01:12N 38°37' W 009°33'1013.4
2015-Feb-22 00:28N 38°39' W 009°21'1010.5
2015-Feb-21 23:29N 38°42' W 009°08'2 2.2
2015-Feb-21 22:29N 38°44' W 009°06'0 0.0
2015-Feb-21 21:33N 38°44' W 009°06'0 0.0
2015-Feb-21 20:29N 38°44' W 009°06'0 0.0
2015-Feb-21 19:33N 38°44' W 009°06'0 0.0
2015-Feb-21 18:30N 38°44' W 009°06'0 0.0
2015-Feb-21 17:31N 38°44' W 009°06'0 0.0
2015-Feb-21 16:32N 38°44' W 009°06'0 0.0
2015-Feb-21 15:33N 38°44' W 009°06'0 0.0
2015-Feb-21 14:33N 38°44' W 009°06'0 0.0
2015-Feb-21 11:20N 38°44' W 009°06'0 0.0
2015-Feb-21 08:31N 38°44' W 009°06'0 0.0
2015-Feb-21 07:33N 38°44' W 009°06'0 0.0
2015-Feb-21 06:33N 38°44' W 009°06'0 0.0
2015-Feb-21 04:05N 38°44' W 009°06'0 0.0
2015-Feb-21 03:28N 38°44' W 009°06'0 0.0
2015-Feb-21 02:19N 38°44' W 009°06'0 0.0
2015-Feb-21 01:28N 38°44' W 009°06'0 0.0
2015-Feb-21 00:30N 38°44' W 009°06'0 0.0
2015-Feb-20 23:33N 38°44' W 009°06'0 0.0
2015-Feb-20 22:32N 38°44' W 009°06'0 0.0
2015-Feb-20 21:29N 38°44' W 009°06'0 0.0
2015-Feb-20 20:25N 38°44' W 009°06'0 0.0
2015-Feb-20 19:31N 38°44' W 009°06'0 0.0
2015-Feb-20 18:24N 38°44' W 009°06'0 0.0
2015-Feb-20 17:27N 38°44' W 009°06'0 0.0
2015-Feb-20 16:33N 38°44' W 009°06'1 0.8
2015-Feb-20 15:32N 38°43' W 009°07'1010.2
2015-Feb-20 14:33N 38°40' W 009°19'1514.6
2015-Feb-20 13:31N 38°36' W 009°38'1515.5
2015-Feb-20 12:33N 38°35' W 009°57'1313.0
2015-Feb-20 11:32N 38°47' W 010°05'  

Dump ship's entire track history